sensor_id;sensor_type;location;lat;lon;timestamp;pressure;altitude;pressure_sealevel;temperature;humidity
3748;BME280;1889;50.058;8.688;2023-05-22T00:00:14;99838.80;;;21.02;61.86
3748;BME280;1889;50.058;8.688;2023-05-22T00:02:44;99836.21;;;21.00;62.05
3748;BME280;1889;50.058;8.688;2023-05-22T00:05:14;99836.72;;;21.00;62.47
3748;BME280;1889;50.058;8.688;2023-05-22T00:07:45;99837.95;;;20.94;62.26
3748;BME280;1889;50.058;8.688;2023-05-22T00:10:14;99831.58;;;20.89;62.34
3748;BME280;1889;50.058;8.688;2023-05-22T00:12:43;99837.57;;;20.93;62.32
3748;BME280;1889;50.058;8.688;2023-05-22T00:15:13;99836.62;;;20.94;62.57
3748;BME280;1889;50.058;8.688;2023-05-22T00:17:42;99833.22;;;20.78;62.89
3748;BME280;1889;50.058;8.688;2023-05-22T00:20:11;99833.13;;;20.79;62.68
3748;BME280;1889;50.058;8.688;2023-05-22T00:22:41;99831.31;;;20.80;62.40
3748;BME280;1889;50.058;8.688;2023-05-22T00:25:11;99828.25;;;20.79;62.85
3748;BME280;1889;50.058;8.688;2023-05-22T00:27:41;99830.06;;;20.78;62.80
3748;BME280;1889;50.058;8.688;2023-05-22T00:30:10;99828.56;;;20.74;62.86
3748;BME280;1889;50.058;8.688;2023-05-22T00:32:40;99829.62;;;20.65;63.14
3748;BME280;1889;50.058;8.688;2023-05-22T00:35:09;99817.89;;;20.46;64.08
3748;BME280;1889;50.058;8.688;2023-05-22T00:37:39;99816.94;;;20.47;63.43
3748;BME280;1889;50.058;8.688;2023-05-22T00:40:09;99822.84;;;20.52;63.48
3748;BME280;1889;50.058;8.688;2023-05-22T00:42:39;99824.66;;;20.51;63.72
3748;BME280;1889;50.058;8.688;2023-05-22T00:45:17;99823.44;;;20.50;63.78
3748;BME280;1889;50.058;8.688;2023-05-22T00:47:43;99823.44;;;20.50;63.78
3748;BME280;1889;50.058;8.688;2023-05-22T00:50:13;99822.84;;;20.52;63.24
3748;BME280;1889;50.058;8.688;2023-05-22T00:52:44;99819.42;;;20.50;63.45
3748;BME280;1889;50.058;8.688;2023-05-22T00:55:15;99822.84;;;20.52;63.47
3748;BME280;1889;50.058;8.688;2023-05-22T00:57:44;99824.91;;;19.90;66.13
3748;BME280;1889;50.058;8.688;2023-05-22T01:00:14;99830.17;;;19.99;65.89
3748;BME280;1889;50.058;8.688;2023-05-22T01:02:44;99830.17;;;19.99;65.89
3748;BME280;1889;50.058;8.688;2023-05-22T01:05:13;99825.22;;;20.07;65.50
3748;BME280;1889;50.058;8.688;2023-05-22T01:07:45;99825.22;;;20.07;65.50
3748;BME280;1889;50.058;8.688;2023-05-22T01:10:14;99831.13;;;20.19;64.84
3748;BME280;1889;50.058;8.688;2023-05-22T01:12:55;99831.13;;;20.19;64.84
3748;BME280;1889;50.058;8.688;2023-05-22T01:18:33;99831.36;;;19.79;66.48
3748;BME280;1889;50.058;8.688;2023-05-22T01:21:18;99830.34;;;19.96;65.58
3748;BME280;1889;50.058;8.688;2023-05-22T01:29:56;99830.63;;;19.77;66.26
3748;BME280;1889;50.058;8.688;2023-05-22T01:32:23;99827.32;;;19.58;67.01
3748;BME280;1889;50.058;8.688;2023-05-22T01:34:55;99828.64;;;19.35;68.15
3748;BME280;1889;50.058;8.688;2023-05-22T01:37:26;99837.86;;;18.91;69.81
3748;BME280;1889;50.058;8.688;2023-05-22T01:39:56;99833.84;;;19.06;69.26
3748;BME280;1889;50.058;8.688;2023-05-22T01:42:25;99838.68;;;18.84;70.39
3748;BME280;1889;50.058;8.688;2023-05-22T01:44:56;99838.37;;;18.66;71.16
3748;BME280;1889;50.058;8.688;2023-05-22T01:47:25;99844.61;;;18.74;71.16
3748;BME280;1889;50.058;8.688;2023-05-22T01:49:54;99834.43;;;19.04;69.71
3748;BME280;1889;50.058;8.688;2023-05-22T01:52:38;99837.94;;;19.21;68.71
3748;BME280;1889;50.058;8.688;2023-05-22T01:55:10;99833.52;;;19.35;68.05
3748;BME280;1889;50.058;8.688;2023-05-22T01:57:48;99829.97;;;19.51;67.30
3748;BME280;1889;50.058;8.688;2023-05-22T02:00:20;99829.97;;;19.51;67.30
3748;BME280;1889;50.058;8.688;2023-05-22T02:02:59;99832.03;;;19.07;69.31
3748;BME280;1889;50.058;8.688;2023-05-22T02:05:29;99833.68;;;19.10;69.23
3748;BME280;1889;50.058;8.688;2023-05-22T02:08:00;99836.04;;;19.30;68.26
3748;BME280;1889;50.058;8.688;2023-05-22T02:10:31;99828.50;;;19.45;67.34
3748;BME280;1889;50.058;8.688;2023-05-22T02:13:01;99828.50;;;19.45;67.34
3748;BME280;1889;50.058;8.688;2023-05-22T02:15:31;99837.59;;;19.50;67.15
3748;BME280;1889;50.058;8.688;2023-05-22T02:18:00;99830.53;;;19.49;67.08
3748;BME280;1889;50.058;8.688;2023-05-22T02:20:30;99829.28;;;19.47;67.00
3748;BME280;1889;50.058;8.688;2023-05-22T02:22:59;99832.64;;;19.51;66.59
3748;BME280;1889;50.058;8.688;2023-05-22T02:25:28;99832.64;;;19.51;66.59
3748;BME280;1889;50.058;8.688;2023-05-22T02:27:58;99831.00;;;19.48;66.55
3748;BME280;1889;50.058;8.688;2023-05-22T02:30:27;99831.00;;;19.48;66.55
3748;BME280;1889;50.058;8.688;2023-05-22T02:32:57;99831.86;;;19.49;66.55
3748;BME280;1889;50.058;8.688;2023-05-22T02:35:27;99833.98;;;19.51;66.49
3748;BME280;1889;50.058;8.688;2023-05-22T02:37:56;99842.88;;;19.42;66.94
3748;BME280;1889;50.058;8.688;2023-05-22T02:40:26;99842.88;;;19.42;66.94
3748;BME280;1889;50.058;8.688;2023-05-22T02:42:55;99834.06;;;19.33;67.04
3748;BME280;1889;50.058;8.688;2023-05-22T02:45:24;99834.06;;;19.33;67.04
3748;BME280;1889;50.058;8.688;2023-05-22T02:47:54;99835.81;;;19.41;66.95
3748;BME280;1889;50.058;8.688;2023-05-22T02:50:23;99835.81;;;19.41;66.95
3748;BME280;1889;50.058;8.688;2023-05-22T02:52:53;99840.20;;;19.42;66.59
3748;BME280;1889;50.058;8.688;2023-05-22T02:55:22;99839.73;;;19.43;66.53
3748;BME280;1889;50.058;8.688;2023-05-22T02:57:52;99840.68;;;19.42;66.55
3748;BME280;1889;50.058;8.688;2023-05-22T03:00:21;99840.05;;;19.30;66.82
3748;BME280;1889;50.058;8.688;2023-05-22T03:02:50;99840.66;;;19.35;66.62
3748;BME280;1889;50.058;8.688;2023-05-22T03:05:20;99840.84;;;19.39;66.36
3748;BME280;1889;50.058;8.688;2023-05-22T03:07:49;99836.03;;;19.46;66.12
3748;BME280;1889;50.058;8.688;2023-05-22T03:10:20;99836.18;;;19.35;66.43
3748;BME280;1889;50.058;8.688;2023-05-22T03:12:50;99837.23;;;19.40;66.21
3748;BME280;1889;50.058;8.688;2023-05-22T03:15:19;99841.05;;;19.36;66.36
3748;BME280;1889;50.058;8.688;2023-05-22T03:17:49;99840.96;;;19.37;66.45
3748;BME280;1889;50.058;8.688;2023-05-22T03:20:18;99839.24;;;19.36;66.35
3748;BME280;1889;50.058;8.688;2023-05-22T03:22:47;99845.52;;;19.35;66.28
3748;BME280;1889;50.058;8.688;2023-05-22T03:25:17;99837.52;;;19.35;66.17
3748;BME280;1889;50.058;8.688;2023-05-22T03:27:48;99843.25;;;19.36;66.21
3748;BME280;1889;50.058;8.688;2023-05-22T03:30:17;99845.52;;;19.35;66.26
3748;BME280;1889;50.058;8.688;2023-05-22T03:32:46;99846.39;;;19.36;66.21
3748;BME280;1889;50.058;8.688;2023-05-22T03:35:16;99845.71;;;19.39;66.07
3748;BME280;1889;50.058;8.688;2023-05-22T03:37:46;99844.55;;;19.29;66.33
3748;BME280;1889;50.058;8.688;2023-05-22T03:40:16;99850.53;;;19.26;66.39
3748;BME280;1889;50.058;8.688;2023-05-22T03:42:45;99851.31;;;19.28;66.38
3748;BME280;1889;50.058;8.688;2023-05-22T03:45:16;99846.72;;;19.30;66.32
3748;BME280;1889;50.058;8.688;2023-05-22T03:47:45;99845.30;;;19.31;66.26
3748;BME280;1889;50.058;8.688;2023-05-22T03:50:15;99843.88;;;19.33;66.20
3748;BME280;1889;50.058;8.688;2023-05-22T03:52:44;99846.24;;;19.30;66.25
3748;BME280;1889;50.058;8.688;2023-05-22T03:55:14;99844.91;;;19.30;66.34
3748;BME280;1889;50.058;8.688;2023-05-22T03:57:43;99839.96;;;19.31;66.17
3748;BME280;1889;50.058;8.688;2023-05-22T04:00:13;99838.23;;;19.30;66.17
3748;BME280;1889;50.058;8.688;2023-05-22T04:02:44;99838.55;;;19.33;66.11
3748;BME280;1889;50.058;8.688;2023-05-22T04:05:13;99837.79;;;19.38;65.88
3748;BME280;1889;50.058;8.688;2023-05-22T04:07:43;99841.91;;;19.36;65.80
3748;BME280;1889;50.058;8.688;2023-05-22T04:10:12;99843.97;;;19.31;66.09
3748;BME280;1889;50.058;8.688;2023-05-22T04:12:41;99846.16;;;19.32;66.18
3748;BME280;1889;50.058;8.688;2023-05-22T04:15:11;99845.72;;;19.17;66.73
3748;BME280;1889;50.058;8.688;2023-05-22T04:17:40;99843.47;;;19.25;66.57
3748;BME280;1889;50.058;8.688;2023-05-22T04:20:10;99843.69;;;19.29;66.33
3748;BME280;1889;50.058;8.688;2023-05-22T04:22:39;99842.22;;;19.23;66.45
3748;BME280;1889;50.058;8.688;2023-05-22T04:25:09;99850.14;;;19.25;66.39
3748;BME280;1889;50.058;8.688;2023-05-22T04:27:38;99850.88;;;19.42;65.73
3748;BME280;1889;50.058;8.688;2023-05-22T04:30:08;99846.47;;;19.34;65.84
3748;BME280;1889;50.058;8.688;2023-05-22T04:32:37;99852.59;;;19.36;65.83
3748;BME280;1889;50.058;8.688;2023-05-22T04:35:08;99857.03;;;19.29;66.07
3748;BME280;1889;50.058;8.688;2023-05-22T04:37:40;99850.58;;;19.17;66.54
3748;BME280;1889;50.058;8.688;2023-05-22T04:40:11;99856.86;;;19.16;66.73
3748;BME280;1889;50.058;8.688;2023-05-22T04:42:42;99856.62;;;19.21;66.57
3748;BME280;1889;50.058;8.688;2023-05-22T04:45:11;99858.00;;;19.12;66.88
3748;BME280;1889;50.058;8.688;2023-05-22T04:47:41;99861.25;;;19.17;66.90
3748;BME280;1889;50.058;8.688;2023-05-22T04:50:10;99862.12;;;19.18;66.88
3748;BME280;1889;50.058;8.688;2023-05-22T04:52:41;99867.03;;;19.10;67.32
3748;BME280;1889;50.058;8.688;2023-05-22T04:55:10;99867.77;;;19.20;66.92
3748;BME280;1889;50.058;8.688;2023-05-22T04:57:40;99864.90;;;19.23;66.78
3748;BME280;1889;50.058;8.688;2023-05-22T05:00:11;99865.20;;;19.26;66.75
3748;BME280;1889;50.058;8.688;2023-05-22T05:02:42;99866.66;;;19.31;66.72
3748;BME280;1889;50.058;8.688;2023-05-22T05:05:11;99864.59;;;19.36;66.69
3748;BME280;1889;50.058;8.688;2023-05-22T05:07:42;99868.80;;;19.40;66.76
3748;BME280;1889;50.058;8.688;2023-05-22T05:10:11;99870.83;;;19.44;66.84
3748;BME280;1889;50.058;8.688;2023-05-22T05:12:40;99867.27;;;19.52;66.66
3748;BME280;1889;50.058;8.688;2023-05-22T05:15:10;99870.59;;;19.56;66.67
3748;BME280;1889;50.058;8.688;2023-05-22T05:17:39;99869.28;;;19.63;66.71
3748;BME280;1889;50.058;8.688;2023-05-22T05:20:09;99867.71;;;19.74;66.60
3748;BME280;1889;50.058;8.688;2023-05-22T05:22:40;99867.25;;;19.82;66.48
3748;BME280;1889;50.058;8.688;2023-05-22T05:25:12;99873.86;;;19.91;66.43
3748;BME280;1889;50.058;8.688;2023-05-22T05:27:41;99876.16;;;20.04;66.05
3748;BME280;1889;50.058;8.688;2023-05-22T05:30:10;99870.73;;;20.12;65.65
3748;BME280;1889;50.058;8.688;2023-05-22T05:32:40;99876.47;;;20.20;65.32
3748;BME280;1889;50.058;8.688;2023-05-22T05:35:09;99873.53;;;20.32;65.03
3748;BME280;1889;50.058;8.688;2023-05-22T05:37:38;99871.72;;;20.33;65.06
3748;BME280;1889;50.058;8.688;2023-05-22T05:40:09;99871.72;;;20.33;65.06
3748;BME280;1889;50.058;8.688;2023-05-22T05:42:38;99878.82;;;20.48;64.55
3748;BME280;1889;50.058;8.688;2023-05-22T05:45:08;99881.48;;;20.62;64.27
3748;BME280;1889;50.058;8.688;2023-05-22T05:47:38;99881.48;;;20.62;64.27
3748;BME280;1889;50.058;8.688;2023-05-22T05:50:08;99881.95;;;20.83;63.34
3748;BME280;1889;50.058;8.688;2023-05-22T05:52:38;99885.95;;;20.90;63.18
3748;BME280;1889;50.058;8.688;2023-05-22T05:55:07;99881.75;;;20.79;62.89
3748;BME280;1889;50.058;8.688;2023-05-22T05:57:36;99887.41;;;20.46;62.90
3748;BME280;1889;50.058;8.688;2023-05-22T06:00:06;99890.66;;;20.65;63.21
3748;BME280;1889;50.058;8.688;2023-05-22T06:02:37;99889.58;;;20.89;62.91
3748;BME280;1889;50.058;8.688;2023-05-22T06:05:06;99891.56;;;21.07;62.13
3748;BME280;1889;50.058;8.688;2023-05-22T06:07:36;99891.56;;;21.07;62.13
3748;BME280;1889;50.058;8.688;2023-05-22T06:10:07;99887.53;;;21.21;61.90
3748;BME280;1889;50.058;8.688;2023-05-22T06:12:37;99887.53;;;21.21;61.90
3748;BME280;1889;50.058;8.688;2023-05-22T06:15:06;99885.60;;;21.30;61.08
3748;BME280;1889;50.058;8.688;2023-05-22T06:17:35;99885.86;;;21.40;61.12
3748;BME280;1889;50.058;8.688;2023-05-22T06:20:05;99881.59;;;21.50;60.72
3748;BME280;1889;50.058;8.688;2023-05-22T06:22:35;99887.64;;;21.66;60.51
3748;BME280;1889;50.058;8.688;2023-05-22T06:25:04;99891.66;;;21.66;59.27
3748;BME280;1889;50.058;8.688;2023-05-22T06:27:33;99891.66;;;21.66;59.27
3748;BME280;1889;50.058;8.688;2023-05-22T06:30:03;99884.91;;;21.80;58.80
3748;BME280;1889;50.058;8.688;2023-05-22T06:32:32;99890.77;;;21.92;58.42
3748;BME280;1889;50.058;8.688;2023-05-22T06:35:01;99891.23;;;21.99;58.25
3748;BME280;1889;50.058;8.688;2023-05-22T06:37:30;99889.14;;;21.90;57.82
3748;BME280;1889;50.058;8.688;2023-05-22T06:40:01;99886.73;;;21.92;57.46
3748;BME280;1889;50.058;8.688;2023-05-22T06:42:31;99891.14;;;21.93;57.72
3748;BME280;1889;50.058;8.688;2023-05-22T06:45:00;99891.77;;;21.84;57.51
3748;BME280;1889;50.058;8.688;2023-05-22T06:47:29;99888.64;;;21.97;56.93
3748;BME280;1889;50.058;8.688;2023-05-22T06:49:58;99891.89;;;22.15;56.77
3748;BME280;1889;50.058;8.688;2023-05-22T06:52:28;99896.34;;;22.22;56.68
3748;BME280;1889;50.058;8.688;2023-05-22T06:54:58;99886.92;;;21.96;56.28
3748;BME280;1889;50.058;8.688;2023-05-22T06:57:30;99889.33;;;22.26;56.02
3748;BME280;1889;50.058;8.688;2023-05-22T07:00:00;99893.09;;;22.36;55.78
3748;BME280;1889;50.058;8.688;2023-05-22T07:02:29;99896.64;;;22.37;55.73
3748;BME280;1889;50.058;8.688;2023-05-22T07:04:58;99897.38;;;22.26;55.19
3748;BME280;1889;50.058;8.688;2023-05-22T07:07:27;99896.84;;;22.34;54.83
3748;BME280;1889;50.058;8.688;2023-05-22T07:12:24;99897.44;;;22.44;54.81
3748;BME280;1889;50.058;8.688;2023-05-22T07:14:53;99903.21;;;22.38;54.29
3748;BME280;1889;50.058;8.688;2023-05-22T07:17:23;99903.44;;;22.61;54.31
3748;BME280;1889;50.058;8.688;2023-05-22T07:19:52;99902.67;;;22.46;54.18
3748;BME280;1889;50.058;8.688;2023-05-22T07:22:22;99906.33;;;22.58;54.31
3748;BME280;1889;50.058;8.688;2023-05-22T07:24:51;99901.80;;;22.71;53.71
3748;BME280;1889;50.058;8.688;2023-05-22T07:27:20;99902.76;;;22.77;52.59
3748;BME280;1889;50.058;8.688;2023-05-22T07:29:49;99902.72;;;22.90;52.39
3748;BME280;1889;50.058;8.688;2023-05-22T07:32:18;99905.98;;;23.00;52.23
3748;BME280;1889;50.058;8.688;2023-05-22T07:34:47;99904.08;;;23.08;51.89
3748;BME280;1889;50.058;8.688;2023-05-22T07:37:16;99894.90;;;23.23;51.56
3748;BME280;1889;50.058;8.688;2023-05-22T07:39:45;99896.94;;;23.19;51.10
3748;BME280;1889;50.058;8.688;2023-05-22T07:42:14;99892.56;;;23.18;50.78
3748;BME280;1889;50.058;8.688;2023-05-22T07:44:43;99889.03;;;23.42;51.13
3748;BME280;1889;50.058;8.688;2023-05-22T07:47:12;99892.70;;;23.46;50.72
3748;BME280;1889;50.058;8.688;2023-05-22T07:49:41;99892.44;;;23.44;50.12
3748;BME280;1889;50.058;8.688;2023-05-22T07:52:10;99889.26;;;23.57;49.71
3748;BME280;1889;50.058;8.688;2023-05-22T07:54:39;99894.37;;;23.60;49.74
3748;BME280;1889;50.058;8.688;2023-05-22T07:57:08;99884.67;;;23.76;49.64
3748;BME280;1889;50.058;8.688;2023-05-22T07:59:39;99892.80;;;23.92;49.41
3748;BME280;1889;50.058;8.688;2023-05-22T08:02:09;99896.11;;;23.90;49.01
3748;BME280;1889;50.058;8.688;2023-05-22T08:04:39;99890.05;;;24.11;48.91
3748;BME280;1889;50.058;8.688;2023-05-22T08:07:08;99897.47;;;24.02;48.58
3748;BME280;1889;50.058;8.688;2023-05-22T08:09:37;99898.22;;;24.09;48.71
3748;BME280;1889;50.058;8.688;2023-05-22T08:12:07;99897.62;;;24.17;48.34
3748;BME280;1889;50.058;8.688;2023-05-22T08:14:36;99894.56;;;24.10;47.62
3748;BME280;1889;50.058;8.688;2023-05-22T08:17:05;99893.03;;;24.24;47.75
3748;BME280;1889;50.058;8.688;2023-05-22T08:19:34;99895.14;;;24.43;47.92
3748;BME280;1889;50.058;8.688;2023-05-22T08:22:03;99902.73;;;24.44;47.02
3748;BME280;1889;50.058;8.688;2023-05-22T08:24:32;99899.64;;;24.20;46.80
3748;BME280;1889;50.058;8.688;2023-05-22T08:27:03;99897.47;;;24.42;47.00
3748;BME280;1889;50.058;8.688;2023-05-22T08:29:32;99896.27;;;24.63;46.45
3748;BME280;1889;50.058;8.688;2023-05-22T08:32:01;99892.48;;;24.71;46.67
3748;BME280;1889;50.058;8.688;2023-05-22T08:34:30;99895.79;;;24.63;47.04
3748;BME280;1889;50.058;8.688;2023-05-22T08:36:59;99889.66;;;24.78;46.78
3748;BME280;1889;50.058;8.688;2023-05-22T08:39:28;99887.80;;;24.90;45.88
3748;BME280;1889;50.058;8.688;2023-05-22T08:41:58;99882.81;;;24.91;46.23
3748;BME280;1889;50.058;8.688;2023-05-22T08:44:27;99886.39;;;24.97;46.50
3748;BME280;1889;50.058;8.688;2023-05-22T08:46:59;99884.02;;;24.76;46.31
3748;BME280;1889;50.058;8.688;2023-05-22T08:49:28;99885.61;;;24.84;46.23
3748;BME280;1889;50.058;8.688;2023-05-22T08:52:02;99883.17;;;24.97;46.07
3748;BME280;1889;50.058;8.688;2023-05-22T08:54:30;99883.92;;;25.05;45.92
3748;BME280;1889;50.058;8.688;2023-05-22T08:56:59;99883.05;;;24.88;45.49
3748;BME280;1889;50.058;8.688;2023-05-22T08:59:29;99878.86;;;24.89;45.82
3748;BME280;1889;50.058;8.688;2023-05-22T09:01:58;99876.06;;;25.07;45.64
3748;BME280;1889;50.058;8.688;2023-05-22T09:04:27;99876.64;;;25.22;45.58
3748;BME280;1889;50.058;8.688;2023-05-22T09:06:56;99881.27;;;25.31;45.63
3748;BME280;1889;50.058;8.688;2023-05-22T09:09:27;99876.91;;;25.19;45.39
3748;BME280;1889;50.058;8.688;2023-05-22T09:11:56;99870.88;;;25.27;45.65
3748;BME280;1889;50.058;8.688;2023-05-22T09:14:25;99868.30;;;25.36;45.31
3748;BME280;1889;50.058;8.688;2023-05-22T09:16:54;99870.34;;;25.44;45.19
3748;BME280;1889;50.058;8.688;2023-05-22T09:19:24;99868.83;;;25.19;45.43
3748;BME280;1889;50.058;8.688;2023-05-22T09:22:00;99868.99;;;25.38;45.20
3748;BME280;1889;50.058;8.688;2023-05-22T09:24:25;99870.84;;;25.43;45.22
3748;BME280;1889;50.058;8.688;2023-05-22T09:26:54;99866.73;;;25.55;45.35
3748;BME280;1889;50.058;8.688;2023-05-22T09:29:23;99865.78;;;25.61;45.23
3748;BME280;1889;50.058;8.688;2023-05-22T09:31:52;99862.66;;;25.71;45.30
3748;BME280;1889;50.058;8.688;2023-05-22T09:34:25;99866.53;;;25.78;45.29
3748;BME280;1889;50.058;8.688;2023-05-22T09:37:01;99862.65;;;25.77;45.36
3748;BME280;1889;50.058;8.688;2023-05-22T09:39:42;99862.93;;;25.68;44.96
3748;BME280;1889;50.058;8.688;2023-05-22T09:42:14;99857.13;;;25.73;45.59
3748;BME280;1889;50.058;8.688;2023-05-22T09:44:48;99858.64;;;25.92;45.53
3748;BME280;1889;50.058;8.688;2023-05-22T09:47:17;99856.80;;;25.93;45.52
3748;BME280;1889;50.058;8.688;2023-05-22T09:49:46;99858.97;;;25.99;45.71
3748;BME280;1889;50.058;8.688;2023-05-22T09:52:17;99861.74;;;26.03;44.67
3748;BME280;1889;50.058;8.688;2023-05-22T09:54:51;99855.41;;;25.98;44.79
3748;BME280;1889;50.058;8.688;2023-05-22T09:57:24;99853.61;;;25.93;45.55
3748;BME280;1889;50.058;8.688;2023-05-22T09:59:56;99856.95;;;26.06;45.10
3748;BME280;1889;50.058;8.688;2023-05-22T10:02:27;99856.59;;;26.05;44.55
3748;BME280;1889;50.058;8.688;2023-05-22T10:04:56;99852.56;;;26.20;45.14
3748;BME280;1889;50.058;8.688;2023-05-22T10:07:31;99857.09;;;26.20;44.42
3748;BME280;1889;50.058;8.688;2023-05-22T10:10:07;99854.77;;;26.21;44.24
3748;BME280;1889;50.058;8.688;2023-05-22T10:12:33;99852.67;;;26.25;43.79
3748;BME280;1889;50.058;8.688;2023-05-22T10:15:04;99852.03;;;26.32;43.95
3748;BME280;1889;50.058;8.688;2023-05-22T10:17:35;99850.73;;;26.42;43.70
3748;BME280;1889;50.058;8.688;2023-05-22T10:20:05;99852.84;;;26.53;43.56
3748;BME280;1889;50.058;8.688;2023-05-22T10:22:36;99851.10;;;26.43;43.25
3748;BME280;1889;50.058;8.688;2023-05-22T10:25:06;99853.33;;;26.53;44.04
3748;BME280;1889;50.058;8.688;2023-05-22T10:27:36;99850.44;;;26.60;43.69
3748;BME280;1889;50.058;8.688;2023-05-22T10:30:20;99846.84;;;26.80;43.70
3748;BME280;1889;50.058;8.688;2023-05-22T10:32:56;99840.75;;;26.88;43.31
3748;BME280;1889;50.058;8.688;2023-05-22T10:35:46;99835.84;;;26.87;43.00
3748;BME280;1889;50.058;8.688;2023-05-22T10:41:04;99823.44;;;27.00;43.01
3748;BME280;1889;50.058;8.688;2023-05-22T10:43:39;99820.20;;;27.06;42.67
3748;BME280;1889;50.058;8.688;2023-05-22T10:46:11;99812.14;;;27.01;42.31
3748;BME280;1889;50.058;8.688;2023-05-22T10:48:45;99817.34;;;26.98;43.07
3748;BME280;1889;50.058;8.688;2023-05-22T10:51:21;99813.30;;;27.17;43.04
3748;BME280;1889;50.058;8.688;2023-05-22T10:53:57;99816.25;;;27.29;42.68
3748;BME280;1889;50.058;8.688;2023-05-22T10:56:23;99812.03;;;27.41;42.45
3748;BME280;1889;50.058;8.688;2023-05-22T10:58:59;99814.10;;;27.33;42.49
3748;BME280;1889;50.058;8.688;2023-05-22T11:01:34;99812.12;;;27.35;42.27
3748;BME280;1889;50.058;8.688;2023-05-22T11:09:26;99812.77;;;27.52;41.98
3748;BME280;1889;50.058;8.688;2023-05-22T11:12:22;99809.34;;;27.50;42.21
3748;BME280;1889;50.058;8.688;2023-05-22T11:14:53;99812.35;;;27.47;42.20
3748;BME280;1889;50.058;8.688;2023-05-22T11:17:23;99811.41;;;27.23;42.66
3748;BME280;1889;50.058;8.688;2023-05-22T11:20:01;99809.28;;;27.46;42.23
3748;BME280;1889;50.058;8.688;2023-05-22T11:22:42;99807.80;;;27.57;41.98
3748;BME280;1889;50.058;8.688;2023-05-22T11:25:16;99807.03;;;27.61;42.03
3748;BME280;1889;50.058;8.688;2023-05-22T11:27:47;99815.81;;;27.34;42.69
3748;BME280;1889;50.058;8.688;2023-05-22T11:30:16;99807.02;;;27.70;42.05
3748;BME280;1889;50.058;8.688;2023-05-22T11:32:46;99808.55;;;27.92;41.53
3748;BME280;1889;50.058;8.688;2023-05-22T11:35:19;99805.06;;;27.96;41.68
3748;BME280;1889;50.058;8.688;2023-05-22T11:37:50;99801.69;;;28.17;41.68
3748;BME280;1889;50.058;8.688;2023-05-22T11:40:21;99794.16;;;27.92;41.39
3748;BME280;1889;50.058;8.688;2023-05-22T11:42:55;99797.06;;;27.71;41.57
3748;BME280;1889;50.058;8.688;2023-05-22T11:45:24;99790.36;;;27.65;41.52
3748;BME280;1889;50.058;8.688;2023-05-22T11:47:53;99784.09;;;27.98;41.44
3748;BME280;1889;50.058;8.688;2023-05-22T11:50:22;99780.92;;;28.22;41.68
3748;BME280;1889;50.058;8.688;2023-05-22T11:52:53;99788.19;;;28.44;41.35
3748;BME280;1889;50.058;8.688;2023-05-22T11:55:23;99786.94;;;28.66;41.57
3748;BME280;1889;50.058;8.688;2023-05-22T11:57:54;99785.84;;;28.45;41.25
3748;BME280;1889;50.058;8.688;2023-05-22T12:00:23;99774.89;;;28.65;41.06
3748;BME280;1889;50.058;8.688;2023-05-22T12:02:53;99775.98;;;28.72;40.87
3748;BME280;1889;50.058;8.688;2023-05-22T12:05:22;99772.41;;;28.81;40.67
3748;BME280;1889;50.058;8.688;2023-05-22T12:07:52;99772.84;;;28.90;40.69
3748;BME280;1889;50.058;8.688;2023-05-22T12:10:21;99768.48;;;28.93;40.75
3748;BME280;1889;50.058;8.688;2023-05-22T12:12:50;99766.39;;;29.05;40.71
3748;BME280;1889;50.058;8.688;2023-05-22T12:15:19;99767.30;;;29.09;40.32
3748;BME280;1889;50.058;8.688;2023-05-22T12:17:48;99763.47;;;29.16;40.45
3748;BME280;1889;50.058;8.688;2023-05-22T12:20:17;99765.61;;;29.26;39.91
3748;BME280;1889;50.058;8.688;2023-05-22T12:22:48;99757.59;;;29.38;40.12
3748;BME280;1889;50.058;8.688;2023-05-22T12:25:17;99761.94;;;29.49;39.68
3748;BME280;1889;50.058;8.688;2023-05-22T12:27:47;99753.57;;;29.64;39.16
3748;BME280;1889;50.058;8.688;2023-05-22T12:30:16;99754.67;;;29.00;39.01
3748;BME280;1889;50.058;8.688;2023-05-22T12:32:49;99756.11;;;29.08;39.30
3748;BME280;1889;50.058;8.688;2023-05-22T12:35:18;99751.94;;;29.49;39.04
3748;BME280;1889;50.058;8.688;2023-05-22T12:37:48;99745.56;;;29.58;38.61
3748;BME280;1889;50.058;8.688;2023-05-22T12:40:18;99743.63;;;29.94;38.51
3748;BME280;1889;50.058;8.688;2023-05-22T12:42:47;99738.95;;;30.05;38.55
3748;BME280;1889;50.058;8.688;2023-05-22T12:45:16;99738.88;;;30.22;38.44
3748;BME280;1889;50.058;8.688;2023-05-22T12:47:45;99743.11;;;30.21;38.01
3748;BME280;1889;50.058;8.688;2023-05-22T12:50:14;99732.75;;;30.24;37.62
3748;BME280;1889;50.058;8.688;2023-05-22T12:52:43;99733.08;;;30.51;37.78
3748;BME280;1889;50.058;8.688;2023-05-22T12:55:12;99739.25;;;29.98;37.72
3748;BME280;1889;50.058;8.688;2023-05-22T12:57:41;99735.27;;;30.18;38.46
3748;BME280;1889;50.058;8.688;2023-05-22T13:00:11;99747.34;;;30.19;36.94
3748;BME280;1889;50.058;8.688;2023-05-22T13:02:40;99739.11;;;30.37;36.71
3748;BME280;1889;50.058;8.688;2023-05-22T13:05:09;99734.86;;;30.73;35.91
3748;BME280;1889;50.058;8.688;2023-05-22T13:07:38;99738.38;;;30.27;36.41
3748;BME280;1889;50.058;8.688;2023-05-22T13:10:08;99740.43;;;30.33;36.19
3748;BME280;1889;50.058;8.688;2023-05-22T13:12:37;99737.95;;;30.10;36.58
3748;BME280;1889;50.058;8.688;2023-05-22T13:15:06;99742.96;;;29.53;37.88
3748;BME280;1889;50.058;8.688;2023-05-22T13:17:35;99738.27;;;29.85;37.30
3748;BME280;1889;50.058;8.688;2023-05-22T13:20:05;99738.88;;;30.26;36.86
3748;BME280;1889;50.058;8.688;2023-05-22T13:22:34;99735.77;;;30.47;36.83
3748;BME280;1889;50.058;8.688;2023-05-22T13:25:04;99739.96;;;30.38;36.52
3748;BME280;1889;50.058;8.688;2023-05-22T13:27:33;99742.84;;;30.36;36.61
3748;BME280;1889;50.058;8.688;2023-05-22T13:30:02;99737.47;;;29.92;37.26
3748;BME280;1889;50.058;8.688;2023-05-22T13:32:32;99737.02;;;30.23;36.90
3748;BME280;1889;50.058;8.688;2023-05-22T13:35:02;99735.99;;;29.72;37.20
3748;BME280;1889;50.058;8.688;2023-05-22T13:37:31;99739.95;;;29.60;37.57
3748;BME280;1889;50.058;8.688;2023-05-22T13:40:00;99741.22;;;29.12;38.05
3748;BME280;1889;50.058;8.688;2023-05-22T13:42:29;99740.64;;;29.05;38.49
3748;BME280;1889;50.058;8.688;2023-05-22T13:44:58;99743.05;;;29.26;38.41
3748;BME280;1889;50.058;8.688;2023-05-22T13:47:27;99732.36;;;29.24;37.95
3748;BME280;1889;50.058;8.688;2023-05-22T13:49:56;99740.34;;;29.08;38.26
3748;BME280;1889;50.058;8.688;2023-05-22T13:52:26;99733.79;;;29.14;38.16
3748;BME280;1889;50.058;8.688;2023-05-22T13:54:55;99731.05;;;29.10;37.42
3748;BME280;1889;50.058;8.688;2023-05-22T13:57:24;99726.22;;;29.57;35.98